Time;durP1;ratioP1;P1;durP2;ratioP2;P2;SDS_P1;SDS_P2;PMS_P1;PMS_P2;Temp;Humidity;BMP_temperature;BMP_pressure;BME280_temperature;BME280_humidity;BME280_pressure;Samples;Min_cycle;Max_cycle;Signal;HPM_P1;HPM_P2
2021/12/25 00:01:09;;;;;;;4.45;1.75;;;0.80;99.90;;;;;;5064788;28;20036;-85
2021/12/25 00:03:36;;;;;;;2.25;1.55;;;1.20;99.90;;;;;;5064249;28;20111;-85
2021/12/25 00:06:03;;;;;;;0.60;0.55;;;0.80;99.90;;;;;;5067848;28;20080;-85
2021/12/25 00:08:31;;;;;;;1.70;1.08;;;1.50;99.90;;;;;;5066602;28;20040;-85
2021/12/25 00:10:58;;;;;;;4.20;1.88;;;1.60;99.90;;;;;;5065003;28;20036;-85
2021/12/25 00:13:24;;;;;;;19.83;1.52;;;0.70;99.90;;;;;;5067188;28;20062;-86
2021/12/25 00:15:50;;;;;;;2.80;1.40;;;0.70;99.90;;;;;;5068704;28;20039;-85
2021/12/25 00:18:16;;;;;;;0.57;0.57;;;0.70;99.90;;;;;;5084479;28;20118;-85
2021/12/25 00:20:42;;;;;;;4.32;1.88;;;0.70;99.90;;;;;;5066772;28;20044;-85
2021/12/25 00:23:08;;;;;;;2.60;1.67;;;0.70;99.90;;;;;;5069130;28;20472;-85
2021/12/25 00:25:39;;;;;;;3.85;2.63;;;0.70;99.90;;;;;;5066122;28;20393;-85
2021/12/25 00:31:06;;;;;;;8.98;1.30;;;0.70;99.90;;;;;;5079039;28;20055;-85
2021/12/25 00:36:13;;;;;;;3.03;1.20;;;0.50;99.90;;;;;;5081763;28;20552;-85
2021/12/25 00:38:41;;;;;;;2.70;1.52;;;0.50;99.90;;;;;;5066708;28;20035;-85
2021/12/25 00:41:10;;;;;;;1.10;1.00;;;0.50;99.90;;;;;;5074980;28;20044;-85
2021/12/25 00:43:35;;;;;;;1.83;1.40;;;0.60;99.90;;;;;;5076319;28;20039;-85
2021/12/25 00:46:01;;;;;;;2.15;1.73;;;0.50;99.90;;;;;;5062903;28;20028;-85
2021/12/25 00:48:27;;;;;;;3.05;1.10;;;0.40;99.90;;;;;;5079784;28;20038;-85
2021/12/25 00:50:54;;;;;;;11.00;1.60;;;0.40;99.90;;;;;;5049100;28;20040;-85
2021/12/25 00:53:20;;;;;;;0.88;0.88;;;0.30;99.90;;;;;;5062948;28;20028;-85
2021/12/25 00:55:45;;;;;;;0.40;0.40;;;0.30;99.90;;;;;;5080919;28;20041;-85
2021/12/25 00:58:11;;;;;;;0.70;0.68;;;0.20;99.90;;;;;;5064664;28;20036;-85
2021/12/25 01:00:38;;;;;;;6.43;1.60;;;0.20;99.90;;;;;;5068236;28;20032;-85
2021/12/25 01:03:04;;;;;;;0.63;0.63;;;0.20;99.90;;;;;;5068903;28;20035;-85
2021/12/25 01:05:31;;;;;;;0.70;0.70;;;0.00;99.90;;;;;;5071679;28;20198;-85
2021/12/25 01:07:57;;;;;;;1.08;0.90;;;1.10;99.90;;;;;;5057046;28;20039;-85
2021/12/25 01:10:22;;;;;;;2.38;0.98;;;0.10;99.90;;;;;;5057668;28;20496;-85
2021/12/25 01:13:09;;;;;;;1.70;0.90;;;0.10;99.90;;;;;;5057446;28;20047;-85
2021/12/25 01:15:54;;;;;;;1.33;0.88;;;0.30;99.90;;;;;;5055587;28;20051;-85
2021/12/25 01:26:53;;;;;;;1.77;1.23;;;-0.10;99.90;;;;;;5103644;28;20082;-86
2021/12/25 01:36:59;;;;;;;1.73;1.15;;;-0.40;99.90;;;;;;5086703;28;20549;-84
2021/12/25 01:39:54;;;;;;;3.22;1.27;;;-0.40;99.90;;;;;;5084301;28;20050;-85
2021/12/25 01:47:51;;;;;;;0.70;0.70;;;-0.40;99.90;;;;;;5088090;28;20173;-85
2021/12/25 01:50:24;;;;;;;0.70;0.70;;;-0.50;99.90;;;;;;5082843;27;20092;-84
2021/12/25 01:52:50;;;;;;;1.38;0.70;;;-0.60;99.90;;;;;;5080970;27;20024;-85
2021/12/25 01:55:25;;;;;;;2.13;0.55;;;-0.60;99.90;;;;;;5095586;28;20042;-85
2021/12/25 01:57:54;;;;;;;0.55;0.55;;;-0.60;99.90;;;;;;5079363;28;20059;-84
2021/12/25 02:00:28;;;;;;;1.40;1.00;;;-0.60;99.90;;;;;;5097167;28;20076;-85
2021/12/25 02:02:54;;;;;;;7.15;1.90;;;-0.70;99.90;;;;;;5080175;28;20126;-85
2021/12/25 02:05:20;;;;;;;0.77;0.60;;;-0.70;99.90;;;;;;5080187;28;20129;-85
2021/12/25 02:07:47;;;;;;;0.50;0.50;;;-0.70;99.90;;;;;;5065577;28;20477;-85
2021/12/25 02:10:15;;;;;;;1.77;0.85;;;-0.90;99.90;;;;;;5080115;28;20438;-84
2021/12/25 02:12:41;;;;;;;4.88;0.90;;;-0.80;99.90;;;;;;5080091;28;20400;-84
2021/12/25 02:15:14;;;;;;;0.68;0.68;;;-0.90;99.90;;;;;;5072693;28;20043;-85
2021/12/25 02:18:09;;;;;;;1.13;0.70;;;-0.90;99.90;;;;;;5060038;28;20040;-84
2021/12/25 02:20:47;;;;;;;3.13;1.00;;;-1.00;99.90;;;;;;5059731;28;20109;-85
2021/12/25 02:23:21;;;;;;;2.97;1.08;;;-1.00;99.90;;;;;;5059757;28;20031;-84
2021/12/25 02:25:49;;;;;;;1.35;0.80;;;-1.00;99.90;;;;;;5059752;28;20040;-85
2021/12/25 02:28:15;;;;;;;0.50;0.50;;;-1.10;99.90;;;;;;5059741;28;20131;-85
2021/12/25 02:30:43;;;;;;;1.20;0.82;;;-1.10;99.90;;;;;;5076355;28;20075;-85
2021/12/25 02:33:09;;;;;;;0.70;0.70;;;-1.20;99.90;;;;;;5059778;28;20080;-84
2021/12/25 02:35:34;;;;;;;1.23;0.80;;;-1.10;99.90;;;;;;5076272;28;20071;-85
2021/12/25 02:38:00;;;;;;;0.50;0.50;;;-1.10;99.90;;;;;;5072944;28;20036;-84
2021/12/25 02:40:26;;;;;;;7.78;1.25;;;-1.10;99.90;;;;;;5059709;28;20043;-84
2021/12/25 02:42:52;;;;;;;0.88;0.80;;;-1.20;99.90;;;;;;5059918;28;20076;-84
2021/12/25 02:45:22;;;;;;;0.73;0.70;;;-1.10;99.90;;;;;;5075983;28;20443;-84
2021/12/25 02:47:50;;;;;;;0.98;0.80;;;-1.20;99.90;;;;;;5078015;28;20503;-84
2021/12/25 02:50:30;;;;;;;1.17;0.88;;;-1.20;99.90;;;;;;5079492;28;20118;-84
2021/12/25 02:52:58;;;;;;;0.60;0.60;;;-1.40;99.90;;;;;;5079707;28;20519;-84
2021/12/25 02:55:26;;;;;;;0.50;0.50;;;-1.40;99.90;;;;;;5078296;28;20032;-84
2021/12/25 02:57:52;;;;;;;0.52;0.52;;;-1.40;99.90;;;;;;5060623;28;20481;-85
2021/12/25 03:00:25;;;;;;;2.53;2.03;;;-1.50;99.90;;;;;;5079294;28;20047;-85
2021/12/25 03:02:51;;;;;;;2.30;1.00;;;-1.50;99.90;;;;;;5079282;28;20043;-85
2021/12/25 03:05:17;;;;;;;1.88;0.73;;;-1.50;99.90;;;;;;5079408;28;20426;-85
2021/12/25 03:07:43;;;;;;;2.33;0.88;;;-1.70;99.90;;;;;;5094270;28;20038;-85
2021/12/25 03:10:11;;;;;;;0.60;0.60;;;-1.70;99.90;;;;;;5075619;28;20036;-84
2021/12/25 03:12:48;;;;;;;1.45;0.85;;;-1.60;99.90;;;;;;5058918;28;20109;-85
2021/12/25 03:15:17;;;;;;;0.70;0.68;;;-1.50;99.90;;;;;;5058929;28;20039;-85
2021/12/25 03:17:43;;;;;;;2.60;0.85;;;-1.60;99.90;;;;;;5059661;28;20409;-85
2021/12/25 03:20:11;;;;;;;0.50;0.50;;;-1.60;99.90;;;;;;5078865;28;20047;-85
2021/12/25 03:22:38;;;;;;;0.50;0.50;;;-1.60;99.90;;;;;;5095588;28;20076;-85
2021/12/25 03:25:09;;;;;;;1.63;1.05;;;-1.70;99.90;;;;;;5078709;28;20039;-85
2021/12/25 03:27:38;;;;;;;0.40;0.40;;;-1.90;99.90;;;;;;5065666;28;20115;-85
2021/12/25 03:30:05;;;;;;;1.70;0.60;;;-1.80;99.90;;;;;;5058907;28;20489;-85
2021/12/25 03:32:31;;;;;;;1.52;0.95;;;-1.80;99.90;;;;;;5058945;28;20032;-85
2021/12/25 03:34:57;;;;;;;0.60;0.60;;;-1.90;99.90;;;;;;5058575;28;20047;-85
2021/12/25 03:37:22;;;;;;;0.60;0.60;;;-1.90;99.90;;;;;;5058279;28;20405;-85
2021/12/25 03:39:48;;;;;;;0.50;0.50;;;-2.00;99.90;;;;;;5058243;28;20497;-85
2021/12/25 03:42:13;;;;;;;0.68;0.63;;;-2.00;99.90;;;;;;5074989;28;20119;-84
2021/12/25 03:44:39;;;;;;;1.08;0.70;;;-1.90;99.90;;;;;;5058576;28;20442;-85
2021/12/25 03:47:21;;;;;;;1.20;0.75;;;-1.90;99.90;;;;;;5074845;28;20058;-84
2021/12/25 03:58:02;;;;;;;1.83;0.85;;;-2.10;99.90;;;;;;5074523;28;20459;-85
2021/12/25 04:00:30;;;;;;;1.77;0.77;;;-2.00;99.90;;;;;;5058243;28;20086;-85
2021/12/25 04:03:01;;;;;;;0.95;0.85;;;-2.00;99.90;;;;;;5057991;28;20040;-85
2021/12/25 04:05:31;;;;;;;3.05;0.68;;;-2.10;99.90;;;;;;5057888;28;20032;-85
2021/12/25 04:08:07;;;;;;;0.60;0.60;;;-2.10;99.90;;;;;;5070710;28;20075;-85
2021/12/25 04:10:45;;;;;;;1.67;0.80;;;-2.10;99.90;;;;;;5057877;28;20036;-85
2021/12/25 04:13:14;;;;;;;1.25;0.98;;;-2.20;99.90;;;;;;5058356;28;20036;-85
2021/12/25 04:15:41;;;;;;;0.60;0.60;;;-2.20;99.90;;;;;;5057790;28;20051;-84
2021/12/25 04:18:07;;;;;;;0.70;0.70;;;-2.20;99.90;;;;;;5062862;28;20112;-85
2021/12/25 04:20:35;;;;;;;0.65;0.65;;;-2.20;99.90;;;;;;5077989;28;20047;-85
2021/12/25 04:23:05;;;;;;;0.40;0.40;;;-2.10;99.90;;;;;;5078096;28;20042;-85
2021/12/25 04:25:33;;;;;;;0.88;0.80;;;-2.10;99.90;;;;;;5094579;28;20386;-84
2021/12/25 04:28:10;;;;;;;0.50;0.50;;;-2.20;99.90;;;;;;5077312;28;20032;-85
2021/12/25 04:31:04;;;;;;;0.70;0.70;;;-2.30;99.90;;;;;;5077869;28;20384;-85
2021/12/25 05:03:51;;;;;;;0.70;0.70;;;-2.80;99.90;;;;;;5094227;28;20092;-85
2021/12/25 05:06:17;;;;;;;1.15;1.02;;;-2.80;99.90;;;;;;5077510;28;20329;-85
2021/12/25 05:08:43;;;;;;;0.50;0.50;;;-2.80;99.90;;;;;;5064846;28;20028;-85
2021/12/25 05:11:09;;;;;;;0.60;0.60;;;-2.70;99.90;;;;;;5057223;28;20051;-85
2021/12/25 05:13:35;;;;;;;0.40;0.40;;;-2.90;99.90;;;;;;5073779;28;20130;-84
2021/12/25 05:16:02;;;;;;;0.50;0.50;;;-2.90;99.90;;;;;;5060529;28;20097;-85
2021/12/25 05:18:28;;;;;;;0.40;0.40;;;-2.90;99.90;;;;;;5069872;28;20047;-85
2021/12/25 05:20:54;;;;;;;1.85;0.82;;;-2.80;99.90;;;;;;5061049;28;20036;-85
2021/12/25 05:23:19;;;;;;;0.50;0.50;;;-2.90;99.90;;;;;;5061374;28;20073;-85
2021/12/25 05:25:45;;;;;;;0.40;0.40;;;-2.90;99.90;;;;;;5077828;28;20032;-85
2021/12/25 05:28:12;;;;;;;0.82;0.80;;;-2.90;99.90;;;;;;5067935;28;20031;-85
2021/12/25 05:30:40;;;;;;;0.93;0.73;;;-3.00;99.90;;;;;;5081309;28;20126;-85
2021/12/25 05:33:06;;;;;;;0.50;0.50;;;-2.90;99.90;;;;;;5080853;28;20064;-85
2021/12/25 05:35:31;;;;;;;0.63;0.63;;;-2.90;99.90;;;;;;5098033;28;20130;-85
2021/12/25 05:37:59;;;;;;;0.55;0.55;;;-2.90;99.90;;;;;;5091819;28;20036;-85
2021/12/25 05:40:25;;;;;;;0.80;0.70;;;-2.90;99.90;;;;;;5077491;28;20069;-85
2021/12/25 05:42:51;;;;;;;0.40;0.40;;;-3.00;99.90;;;;;;5060679;28;20054;-85
2021/12/25 05:45:17;;;;;;;0.80;0.60;;;-3.00;99.90;;;;;;5060921;28;20094;-85
2021/12/25 05:47:43;;;;;;;0.50;0.50;;;-3.00;99.90;;;;;;5063745;28;20031;-85
2021/12/25 05:50:09;;;;;;;4.13;1.13;;;-3.00;99.90;;;;;;5079924;28;20036;-85
2021/12/25 05:52:35;;;;;;;1.38;0.98;;;-3.00;99.90;;;;;;5080442;28;20043;-85
2021/12/25 05:55:00;;;;;;;1.67;0.80;;;-3.00;99.90;;;;;;5080616;28;20043;-84
2021/12/25 05:57:26;;;;;;;0.63;0.63;;;-2.90;99.90;;;;;;5080186;28;20093;-85
2021/12/25 05:59:51;;;;;;;1.50;0.70;;;-3.00;99.90;;;;;;5070923;28;20043;-85
2021/12/25 06:02:17;;;;;;;0.50;0.50;;;-3.00;99.90;;;;;;5077061;28;20044;-85
2021/12/25 06:04:42;;;;;;;0.60;0.60;;;-3.00;99.90;;;;;;5060369;28;20032;-85
2021/12/25 06:07:08;;;;;;;0.90;0.65;;;-3.00;99.90;;;;;;5087624;28;20042;-84
2021/12/25 06:09:34;;;;;;;1.15;0.68;;;-3.00;99.90;;;;;;5073169;28;20032;-85
2021/12/25 06:12:01;;;;;;;0.90;0.80;;;-3.00;99.90;;;;;;5060101;28;20063;-85
2021/12/25 06:14:26;;;;;;;1.67;0.90;;;-3.10;99.90;;;;;;5060094;28;20104;-85
2021/12/25 06:16:52;;;;;;;0.60;0.52;;;-3.10;99.90;;;;;;5060333;28;20485;-85
2021/12/25 06:19:17;;;;;;;1.33;0.90;;;-3.10;99.90;;;;;;5080139;28;20035;-85
2021/12/25 06:21:45;;;;;;;0.73;0.73;;;-3.10;99.90;;;;;;5080076;28;20076;-85
2021/12/25 06:24:13;;;;;;;1.42;0.70;;;-3.10;99.90;;;;;;5080101;28;20504;-85
2021/12/25 06:26:39;;;;;;;0.73;0.70;;;-3.20;99.90;;;;;;5079824;28;20047;-85
2021/12/25 06:29:05;;;;;;;0.70;0.60;;;-3.20;99.90;;;;;;5076421;28;20036;-85
2021/12/25 06:31:31;;;;;;;0.70;0.70;;;-3.20;99.90;;;;;;5079895;28;20407;-85
2021/12/25 06:33:59;;;;;;;0.50;0.50;;;-3.30;99.90;;;;;;5096930;28;20047;-85
2021/12/25 06:36:25;;;;;;;0.50;0.50;;;-3.30;99.90;;;;;;5080333;28;20088;-84
2021/12/25 06:38:50;;;;;;;0.60;0.60;;;-3.20;99.90;;;;;;5079802;28;20032;-85
2021/12/25 06:41:16;;;;;;;0.70;0.70;;;-3.30;99.90;;;;;;5077009;28;20043;-85
2021/12/25 06:43:42;;;;;;;0.50;0.50;;;-3.30;99.90;;;;;;5076553;28;20043;-85
2021/12/25 06:46:08;;;;;;;0.60;0.60;;;-3.30;99.90;;;;;;5059783;28;20039;-85
2021/12/25 06:48:34;;;;;;;0.73;0.73;;;-3.30;99.90;;;;;;5059548;28;20070;-84
2021/12/25 06:51:00;;;;;;;2.40;0.60;;;-3.30;99.90;;;;;;5062406;28;20047;-85
2021/12/25 06:53:25;;;;;;;1.83;0.83;;;-3.40;99.90;;;;;;5079462;28;20337;-85
2021/12/25 06:55:51;;;;;;;0.50;0.50;;;-3.30;99.90;;;;;;5089285;28;20492;-85
2021/12/25 06:58:16;;;;;;;1.17;1.07;;;-3.30;99.90;;;;;;5059085;28;20068;-85
2021/12/25 07:00:42;;;;;;;4.20;0.70;;;-3.30;99.90;;;;;;5059517;28;20485;-85
2021/12/25 07:03:08;;;;;;;0.77;0.68;;;-3.40;99.90;;;;;;5065967;28;20063;-84
2021/12/25 07:05:33;;;;;;;1.37;0.70;;;-3.30;99.90;;;;;;5068278;28;20088;-84
2021/12/25 07:08:00;;;;;;;2.88;0.90;;;-3.30;99.90;;;;;;5080945;28;20031;-85
2021/12/25 07:10:26;;;;;;;0.50;0.50;;;-3.40;99.90;;;;;;5085237;28;20489;-85
2021/12/25 07:12:53;;;;;;;0.43;0.43;;;-3.40;99.90;;;;;;5065496;28;20039;-84
2021/12/25 07:15:19;;;;;;;0.53;0.53;;;-3.50;99.90;;;;;;5066456;28;20084;-84
2021/12/25 07:17:45;;;;;;;0.50;0.50;;;-3.40;99.90;;;;;;5067485;28;20032;-84
2021/12/25 07:20:12;;;;;;;0.90;0.80;;;-3.50;99.90;;;;;;5074554;28;20101;-84
2021/12/25 07:22:37;;;;;;;1.10;0.80;;;-3.50;99.90;;;;;;5058312;28;20040;-84
2021/12/25 07:25:05;;;;;;;0.60;0.60;;;-3.50;99.90;;;;;;5069232;28;20114;-84
2021/12/25 07:27:30;;;;;;;0.63;0.57;;;-3.50;99.90;;;;;;5066311;28;20047;-84
2021/12/25 07:29:56;;;;;;;0.40;0.40;;;-3.60;99.90;;;;;;5065293;28;20040;-84
2021/12/25 07:32:21;;;;;;;2.53;0.50;;;-3.60;99.90;;;;;;5066271;28;20044;-85
2021/12/25 07:34:48;;;;;;;0.40;0.40;;;-3.60;99.90;;;;;;5065944;28;20039;-84
2021/12/25 07:37:15;;;;;;;0.40;0.40;;;-3.60;99.90;;;;;;5069530;28;20047;-84
2021/12/25 07:39:42;;;;;;;0.40;0.40;;;-3.60;99.90;;;;;;5066189;28;20050;-84
2021/12/25 07:42:08;;;;;;;0.40;0.40;;;-3.60;99.90;;;;;;5074718;28;20083;-84
2021/12/25 07:44:33;;;;;;;0.50;0.50;;;-3.70;99.90;;;;;;5062799;28;20039;-84
2021/12/25 07:46:59;;;;;;;0.40;0.40;;;-3.70;99.90;;;;;;5070298;28;20467;-84
2021/12/25 07:49:26;;;;;;;0.40;0.40;;;-3.70;99.90;;;;;;5068534;28;20035;-84
2021/12/25 07:51:52;;;;;;;0.43;0.43;;;-3.70;99.90;;;;;;5065707;28;20079;-85
2021/12/25 07:54:18;;;;;;;1.17;0.50;;;-3.70;99.90;;;;;;5085724;28;20089;-85
2021/12/25 07:56:44;;;;;;;3.03;0.93;;;-3.70;99.90;;;;;;5065523;28;20040;-84
2021/12/25 07:59:10;;;;;;;0.57;0.57;;;-3.70;99.90;;;;;;5058107;28;20043;-85
2021/12/25 08:01:36;;;;;;;0.40;0.40;;;-3.80;99.90;;;;;;5082850;28;20114;-84
2021/12/25 08:04:03;;;;;;;0.50;0.50;;;-3.80;99.90;;;;;;5068439;28;20035;-85
2021/12/25 08:06:30;;;;;;;0.40;0.40;;;-3.80;99.90;;;;;;5053192;28;20036;-84
2021/12/25 08:08:56;;;;;;;0.50;0.50;;;-3.90;99.90;;;;;;5065316;28;20028;-84
2021/12/25 08:11:22;;;;;;;1.17;0.70;;;-3.80;99.90;;;;;;5068043;28;20504;-84
2021/12/25 08:13:48;;;;;;;0.47;0.47;;;-3.90;99.90;;;;;;5067412;28;20050;-85
2021/12/25 08:16:14;;;;;;;0.40;0.40;;;-3.70;99.90;;;;;;5087465;28;20043;-84
2021/12/25 08:18:39;;;;;;;0.70;0.70;;;-3.90;99.90;;;;;;5066250;28;20032;-84
2021/12/25 08:21:05;;;;;;;0.50;0.40;;;-3.90;99.90;;;;;;5065763;28;20043;-85
2021/12/25 08:23:33;;;;;;;0.40;0.40;;;-3.90;99.90;;;;;;5086352;28;20039;-84
2021/12/25 08:26:01;;;;;;;0.47;0.40;;;-3.80;99.90;;;;;;5066138;28;20036;-85
2021/12/25 08:28:26;;;;;;;0.50;0.50;;;-3.90;99.90;;;;;;5068215;28;20140;-84
2021/12/25 08:30:53;;;;;;;0.80;0.60;;;-3.90;99.90;;;;;;5067860;28;20078;-84
2021/12/25 08:33:19;;;;;;;0.50;0.50;;;-3.80;99.90;;;;;;5067078;28;20048;-85
2021/12/25 08:35:45;;;;;;;0.50;0.40;;;-3.70;99.90;;;;;;5086249;28;20407;-85
2021/12/25 08:38:11;;;;;;;0.70;0.53;;;-4.40;99.90;;;;;;5065507;28;20036;-85
2021/12/25 08:40:38;;;;;;;0.70;0.60;;;-3.80;99.90;;;;;;5065885;28;20492;-85
2021/12/25 08:43:05;;;;;;;0.73;0.60;;;-3.80;99.90;;;;;;5065503;28;20028;-85
2021/12/25 08:45:49;;;;;;;1.27;0.80;;;-3.80;99.90;;;;;;5065524;28;20035;-84
2021/12/25 08:48:21;;;;;;;1.07;0.40;;;-3.70;99.90;;;;;;5065630;28;20039;-85
2021/12/25 08:50:49;;;;;;;0.40;0.40;;;-3.80;99.90;;;;;;5056260;28;20032;-85
2021/12/25 08:53:17;;;;;;;0.70;0.50;;;-3.80;99.90;;;;;;5086504;28;20094;-85
2021/12/25 08:55:43;;;;;;;0.50;0.50;;;-3.80;99.90;;;;;;5070023;28;20044;-84
2021/12/25 08:58:09;;;;;;;0.40;0.40;;;-3.80;99.90;;;;;;5089306;28;20040;-84
2021/12/25 09:00:35;;;;;;;0.43;0.43;;;-3.70;99.90;;;;;;5069535;28;20075;-84
2021/12/25 09:03:01;;;;;;;2.63;0.70;;;-3.70;99.90;;;;;;5074893;28;20077;-84
2021/12/25 09:05:27;;;;;;;0.53;0.50;;;-3.70;99.90;;;;;;5072746;28;20397;-84
2021/12/25 09:07:52;;;;;;;0.87;0.60;;;-3.70;99.90;;;;;;5085316;28;20028;-85
2021/12/25 09:10:18;;;;;;;0.50;0.50;;;-3.70;99.90;;;;;;5071294;28;20032;-85
2021/12/25 09:12:45;;;;;;;0.43;0.43;;;-3.70;99.90;;;;;;5068957;28;20058;-85
2021/12/25 09:15:12;;;;;;;0.47;0.47;;;-3.70;99.90;;;;;;5072049;28;20085;-84
2021/12/25 09:17:38;;;;;;;0.50;0.50;;;-3.70;99.90;;;;;;5069597;28;20100;-84
2021/12/25 09:20:06;;;;;;;2.33;0.93;;;-3.60;99.90;;;;;;5072096;28;20036;-84
2021/12/25 09:22:32;;;;;;;2.07;0.60;;;-3.60;99.90;;;;;;5061519;28;20517;-84
2021/12/25 09:24:58;;;;;;;0.83;0.80;;;-3.50;99.90;;;;;;5073685;28;20028;-85
2021/12/25 09:27:25;;;;;;;1.17;0.93;;;-3.40;99.90;;;;;;5067995;28;20036;-85
2021/12/25 09:29:51;;;;;;;0.40;0.40;;;-3.40;99.90;;;;;;5072475;28;20039;-84
2021/12/25 09:32:16;;;;;;;3.03;0.80;;;-3.30;99.90;;;;;;5071734;28;20042;-85
2021/12/25 09:34:42;;;;;;;0.50;0.50;;;-3.30;99.90;;;;;;5070034;28;20065;-84
2021/12/25 09:37:08;;;;;;;0.40;0.40;;;-3.30;99.90;;;;;;5068102;28;20066;-84
2021/12/25 09:39:35;;;;;;;0.40;0.40;;;-3.20;99.90;;;;;;5069092;28;20031;-85
2021/12/25 09:42:02;;;;;;;0.90;0.70;;;-3.20;99.90;;;;;;5060637;28;20072;-84
2021/12/25 09:44:28;;;;;;;1.80;0.70;;;-3.10;99.90;;;;;;5088720;28;20035;-85
2021/12/25 09:46:54;;;;;;;0.73;0.50;;;-3.10;99.90;;;;;;5069035;28;20481;-85
2021/12/25 09:49:21;;;;;;;0.60;0.60;;;-3.10;99.90;;;;;;5073136;28;20084;-84
2021/12/25 09:51:46;;;;;;;0.60;0.60;;;-3.10;99.90;;;;;;5072677;28;20488;-85
2021/12/25 09:54:18;;;;;;;1.53;1.00;;;-3.10;99.90;;;;;;5085191;28;20140;-85
2021/12/25 09:56:47;;;;;;;0.50;0.50;;;-3.10;99.90;;;;;;5072610;28;20044;-84
2021/12/25 09:59:13;;;;;;;1.27;0.93;;;-1.60;99.90;;;;;;5074204;28;20040;-84
2021/12/25 10:01:49;;;;;;;9.63;0.80;;;-2.80;99.90;;;;;;5071440;28;20032;-85
2021/12/25 10:04:41;;;;;;;0.60;0.60;;;-3.00;99.90;;;;;;5084316;28;20078;-85
2021/12/25 10:07:29;;;;;;;0.47;0.47;;;-3.00;99.90;;;;;;5066957;28;20389;-85
2021/12/25 10:10:00;;;;;;;0.67;0.60;;;-3.00;99.90;;;;;;5077490;28;20044;-84
2021/12/25 10:12:43;;;;;;;0.77;0.60;;;-3.00;99.90;;;;;;5086161;28;20032;-84
2021/12/25 10:15:15;;;;;;;0.80;0.60;;;-2.90;99.90;;;;;;5052513;28;20493;-84
2021/12/25 10:17:48;;;;;;;0.50;0.50;;;-2.90;99.90;;;;;;5069701;28;20127;-84
2021/12/25 10:20:17;;;;;;;1.00;0.67;;;-2.90;99.90;;;;;;5067754;28;20069;-84
2021/12/25 10:23:04;;;;;;;2.00;1.17;;;-2.80;99.90;;;;;;5067475;28;20036;-83
2021/12/25 10:25:38;;;;;;;1.27;0.60;;;-2.80;99.90;;;;;;5067117;28;20038;-84
2021/12/25 10:28:07;;;;;;;1.73;0.67;;;-2.80;99.90;;;;;;5060790;28;20450;-84
2021/12/25 10:30:55;;;;;;;0.60;0.60;;;-2.70;99.90;;;;;;5084305;27;20058;-85
2021/12/25 10:33:41;;;;;;;0.80;0.60;;;-2.70;99.90;;;;;;5086418;28;20394;-84
2021/12/25 10:36:10;;;;;;;0.50;0.50;;;-2.70;99.90;;;;;;5065251;28;20039;-84
2021/12/25 10:38:38;;;;;;;1.07;0.80;;;-2.60;99.90;;;;;;5077633;28;20035;-84
2021/12/25 10:41:20;;;;;;;0.60;0.50;;;-2.60;99.90;;;;;;5082139;28;20689;-84
2021/12/25 10:43:48;;;;;;;0.83;0.53;;;-2.60;99.90;;;;;;5081571;28;20077;-84
2021/12/25 10:46:15;;;;;;;0.80;0.70;;;-2.60;99.90;;;;;;5067556;28;20223;-85
2021/12/25 10:48:41;;;;;;;1.03;0.80;;;-2.60;99.90;;;;;;5054750;28;20040;-84
2021/12/25 10:51:23;;;;;;;0.50;0.50;;;-2.50;99.90;;;;;;5083756;28;20039;-85
2021/12/25 10:53:52;;;;;;;0.97;0.53;;;-2.50;99.90;;;;;;5055685;28;20075;-84
2021/12/25 10:56:20;;;;;;;1.20;0.77;;;-1.70;99.90;;;;;;5064544;28;20039;-84
2021/12/25 10:58:45;;;;;;;0.50;0.50;;;-2.50;99.90;;;;;;5098038;28;20044;-84
2021/12/25 11:01:14;;;;;;;0.70;0.60;;;-2.50;99.90;;;;;;5082864;28;20036;-85
2021/12/25 11:03:45;;;;;;;1.43;0.67;;;-2.50;99.90;;;;;;5087342;28;20042;-84
2021/12/25 11:06:17;;;;;;;0.50;0.50;;;-2.50;99.90;;;;;;5073801;28;20126;-84
2021/12/25 11:08:48;;;;;;;1.03;0.77;;;-2.50;99.90;;;;;;5080831;28;20028;-85
2021/12/25 11:11:19;;;;;;;1.30;0.70;;;-2.50;99.90;;;;;;5064086;28;20051;-85
2021/12/25 11:13:53;;;;;;;0.50;0.50;;;-2.40;99.90;;;;;;5070608;28;20397;-84
2021/12/25 11:16:31;;;;;;;0.93;0.60;;;-2.40;99.90;;;;;;5094811;27;20054;-84
2021/12/25 11:21:36;;;;;;;8.33;1.23;;;-2.40;99.90;;;;;;5076528;28;20048;-84
2021/12/25 11:24:05;;;;;;;0.50;0.50;;;-2.40;99.90;;;;;;5070171;28;20040;-85
2021/12/25 11:26:31;;;;;;;1.65;0.63;;;-2.30;99.90;;;;;;5067886;28;20040;-84
2021/12/25 11:28:58;;;;;;;0.50;0.50;;;-2.30;99.90;;;;;;5054622;28;20115;-85
2021/12/25 11:31:23;;;;;;;3.53;1.13;;;-2.30;99.90;;;;;;5067347;28;20032;-85
2021/12/25 11:33:50;;;;;;;1.43;0.70;;;-2.30;99.90;;;;;;5070579;28;20039;-84
2021/12/25 11:36:17;;;;;;;0.65;0.65;;;-2.10;99.90;;;;;;5084840;28;20491;-84
2021/12/25 11:38:43;;;;;;;1.77;0.67;;;-2.20;99.90;;;;;;5052192;28;20115;-85
2021/12/25 11:41:12;;;;;;;0.97;0.80;;;-2.20;99.90;;;;;;5071581;28;20123;-84
2021/12/25 11:43:42;;;;;;;0.73;0.70;;;-2.20;99.90;;;;;;5060213;28;20036;-85
2021/12/25 11:46:09;;;;;;;1.07;0.70;;;-2.10;99.90;;;;;;5062988;28;20035;-84
2021/12/25 11:48:36;;;;;;;0.40;0.40;;;-0.60;99.90;;;;;;5068601;28;20550;-84
2021/12/25 11:51:03;;;;;;;0.68;0.65;;;-1.40;99.90;;;;;;5064893;28;20043;-84
2021/12/25 11:56:50;;;;;;;7.20;0.70;;;-2.10;99.90;;;;;;5058868;28;20044;-84
2021/12/25 11:59:17;;;;;;;0.68;0.68;;;-2.00;99.90;;;;;;5062578;28;20041;-84
2021/12/25 12:01:48;;;;;;;0.53;0.53;;;-1.80;99.90;;;;;;5083855;28;20457;-84
2021/12/25 12:04:21;;;;;;;1.20;0.77;;;-2.00;99.90;;;;;;5085358;28;20487;-84
2021/12/25 12:06:47;;;;;;;1.27;0.70;;;-2.00;99.90;;;;;;5076303;27;20043;-84
2021/12/25 12:09:21;;;;;;;0.60;0.60;;;-2.00;99.90;;;;;;5071427;28;20039;-85
2021/12/25 12:12:09;;;;;;;2.55;0.70;;;-2.00;99.90;;;;;;5070672;27;20036;-85
2021/12/25 12:14:37;;;;;;;0.63;0.50;;;-2.00;99.90;;;;;;5067594;28;20048;-84
2021/12/25 12:17:27;;;;;;;0.97;0.70;;;-1.90;99.90;;;;;;5081188;28;20040;-84
2021/12/25 12:19:55;;;;;;;0.50;0.50;;;-1.90;99.90;;;;;;5084146;28;20074;-84
2021/12/25 12:22:35;;;;;;;7.50;0.80;;;-1.90;99.90;;;;;;5064112;28;20043;-84
2021/12/25 12:27:39;;;;;;;1.38;0.60;;;-1.90;99.90;;;;;;5085006;28;20310;-84
2021/12/25 12:30:07;;;;;;;7.22;1.38;;;-1.90;99.90;;;;;;5082819;28;20089;-84
2021/12/25 12:32:51;;;;;;;0.60;0.60;;;-1.90;99.90;;;;;;5065700;28;20032;-85
2021/12/25 12:35:30;;;;;;;0.50;0.50;;;-1.90;99.90;;;;;;5067042;28;20685;-84
2021/12/25 12:38:27;;;;;;;0.60;0.60;;;-1.90;99.90;;;;;;5082359;28;20035;-84
2021/12/25 12:41:49;;;;;;;0.87;0.57;;;-1.90;99.90;;;;;;5066042;28;20051;-84
2021/12/25 12:44:23;;;;;;;0.60;0.60;;;-1.80;99.90;;;;;;5062840;28;20058;-84
2021/12/25 12:46:53;;;;;;;0.55;0.50;;;-1.80;99.90;;;;;;5081436;28;20043;-84
2021/12/25 12:49:20;;;;;;;0.50;0.50;;;-1.80;99.90;;;;;;5082860;28;20431;-84
2021/12/25 12:51:49;;;;;;;0.80;0.80;;;-1.90;99.90;;;;;;5062576;28;20499;-84
2021/12/25 12:54:42;;;;;;;0.90;0.80;;;-1.80;99.90;;;;;;5065356;28;20036;-84
2021/12/25 12:57:08;;;;;;;1.15;0.80;;;-1.80;99.90;;;;;;5072630;28;20084;-84
2021/12/25 12:59:46;;;;;;;2.75;0.82;;;-1.80;99.90;;;;;;5066181;28;20531;-84
2021/12/25 13:02:13;;;;;;;2.00;0.80;;;-1.80;99.90;;;;;;5090091;28;20586;-84
2021/12/25 13:04:48;;;;;;;0.70;0.70;;;-1.80;99.90;;;;;;5067392;28;20032;-84
2021/12/25 13:07:18;;;;;;;1.38;0.60;;;-1.80;99.90;;;;;;5057926;28;20028;-84
2021/12/25 13:09:52;;;;;;;1.20;0.73;;;-1.80;99.90;;;;;;5081485;28;20028;-84
2021/12/25 13:12:44;;;;;;;0.50;0.50;;;-1.80;99.90;;;;;;5069358;28;20401;-84
2021/12/25 13:15:19;;;;;;;1.63;0.97;;;-1.80;99.90;;;;;;5059624;28;20039;-84
2021/12/25 13:17:51;;;;;;;0.75;0.60;;;-1.80;99.90;;;;;;5065808;28;20032;-84
2021/12/25 13:20:17;;;;;;;1.23;0.70;;;-1.80;99.90;;;;;;5068655;28;20377;-84
2021/12/25 13:22:54;;;;;;;1.92;0.90;;;-1.80;99.90;;;;;;5080387;28;20032;-84
2021/12/25 13:25:20;;;;;;;3.00;0.65;;;-1.80;99.90;;;;;;5077773;28;20043;-84
2021/12/25 13:27:53;;;;;;;1.10;1.02;;;-1.80;99.90;;;;;;5068637;28;20391;-84
2021/12/25 13:30:19;;;;;;;0.90;0.80;;;-1.80;99.90;;;;;;5055988;28;20071;-84
2021/12/25 13:32:45;;;;;;;2.13;0.90;;;-1.80;99.90;;;;;;5061400;28;20028;-84
2021/12/25 13:35:21;;;;;;;0.50;0.50;;;-1.80;99.90;;;;;;5061789;28;20097;-84
2021/12/25 13:37:55;;;;;;;0.50;0.50;;;-1.80;99.90;;;;;;5096594;28;20051;-84
2021/12/25 13:40:20;;;;;;;0.70;0.50;;;-1.80;99.90;;;;;;5073839;28;20046;-85
2021/12/25 13:42:46;;;;;;;1.35;0.70;;;-1.80;99.90;;;;;;5084522;28;20043;-84
2021/12/25 13:45:11;;;;;;;0.55;0.55;;;-1.80;99.90;;;;;;5086052;28;20492;-85
2021/12/25 13:47:39;;;;;;;0.70;0.70;;;-1.80;99.90;;;;;;5068428;28;20032;-84
2021/12/25 13:50:08;;;;;;;0.60;0.60;;;-1.80;99.90;;;;;;5070717;28;20477;-84
2021/12/25 13:52:37;;;;;;;0.55;0.55;;;-1.90;99.90;;;;;;5070075;28;20040;-84
2021/12/25 13:55:10;;;;;;;0.50;0.50;;;-1.90;99.90;;;;;;5069964;28;20400;-85
2021/12/25 13:57:41;;;;;;;4.03;1.08;;;-1.90;99.90;;;;;;5073634;28;20124;-84
2021/12/25 14:00:23;;;;;;;2.03;0.75;;;-1.90;99.90;;;;;;5085420;28;20039;-84
2021/12/25 14:02:56;;;;;;;9.52;2.55;;;-1.90;99.90;;;;;;5064270;28;20043;-84
2021/12/25 14:05:24;;;;;;;0.40;0.40;;;-1.90;99.90;;;;;;5069884;28;20113;-84
2021/12/25 14:07:50;;;;;;;0.50;0.50;;;-2.00;99.90;;;;;;5071764;28;20027;-84
2021/12/25 14:10:21;;;;;;;0.55;0.55;;;-2.00;99.90;;;;;;5085127;28;20058;-84
2021/12/25 14:12:53;;;;;;;0.60;0.60;;;-2.00;99.90;;;;;;5088964;28;20046;-84